Archival Weather

Václav Havel Intl Apt

Prague, Czechia (LKPR)

Report from: Monday, May 29, 2023 6:30 AM CEST
Current time: Friday, July 19, 2024 4:29 AM CEST

Current weather – Weather history – Daily summaries
Weather forecast

Temperature10.0°C (50.0°F)
Wind chill9.6°C (49.3°F)
Dew point5.0°C (41.0°F)
Winds 3 kts (1.5 m/s, 3.5 mph) Vrb
Winds variableWinds variable from West (280°) to North (350°)
Clouds Sky clear
Altimeter30.09 in.Hg (1019 mB)
Relative humidity71 %
Density altitude-665 ft. (-203 m)
Remarks Ceiling and visibility OK
No significant changes expected in the next two hours
Flight conditions Visual Meteorological Conditions
Raw dataLKPR 290430Z 32003KT 280V350 CAVOK 10/05 Q1019 NOSIG
An error has occurred. This application may no longer respond until reloaded. Reload 🗙